AirNav   Phillips 66 Aviation Fuel
 
 948 users online  

MO37 Ridgeview Ranch Airport
Harrisonville, Missouri, USA

GOING TO HARRISONVILLE?


FAA INFORMATION EFFECTIVE 08 NOVEMBER 2018

Location

FAA Identifier: MO37
Lat/Long: 38-43-23.0400N / 094-22-54.8200W
38-43.384000N / 094-22.913667W
38.7230667 / -94.3818944
(estimated)
Elevation: 985 ft. / 300 m (estimated)
Variation: 04E (1995)
From city: 3 miles NW of HARRISONVILLE, MO
Time zone: UTC -6 (UTC -5 during Daylight Saving Time)
Zip code: 64701

Airport Operations

Airport use: Private use. Permission required prior to landing
Activation date: 12/1999
Control tower: no
ARTCC: KANSAS CITY CENTER
FSS: COLUMBIA FLIGHT SERVICE STATION
Attendance: UNATNDD
Wind indicator: yes
Segmented circle: no

Airport Communications

WX AWOS-3PT at LRY (7 nm S): 119.975 (816-380-5936)
WX ASOS at LXT (14 nm N): 124.175 (816-347-9807)
WX ASOS at OJC (18 nm NW): PHONE 913-780-6969

Nearby radio navigation aids

VOR radial/distance  VOR name  Freq  Var
ANXr201/25.3NAPOLEON VORTAC114.0007E
BUMr003/27.5BUTLER VORTAC115.9007E
MCIr149/37.6KANSAS CITY VORTAC113.2505E

 
NDB name  Hdg/Dist  Freq  Var  ID
GOLDEN VALLEY303/39.438801EGLY --. .-.. -.--

Airport Services

Runway Information

Runway 18/36

Dimensions: 2500 x 100 ft. / 762 x 30 m
Surface: turf
RUNWAY 18  RUNWAY 36
Traffic pattern: rightleft

Runway 9/27

Dimensions: 2400 x 100 ft. / 732 x 30 m
Surface: turf
RUNWAY 9  RUNWAY 27
Traffic pattern: rightleft

Airport Ownership and Management from official FAA records

Ownership: Privately-owned
Owner: T.L. MCGINNIS
21720 SOUTH ST. RTE 291
HARRISONVILLE, MO 64701
Phone (816) 806-2600
Manager: T.L. MCGINNIS
21720 SOUTH ST. RTE 291
HARRISONVILLE, MO 64701
Phone (816) 806-2600

Airport Operational Statistics

Aircraft based on the field: 1
Single engine airplanes: 1
    

Additional Remarks

OWNER DESIRES ARPT NOT BE CHARTED.
FOR CD CTC KANSAS CITY APCH AT 816-329-2710.

Instrument Procedures

There are no published instrument procedures at MO37.

Some nearby airports with instrument procedures:

KLRY - Lawrence Smith Memorial Airport (7 nm S)
KLXT - Lee's Summit Municipal Airport (14 nm N)
KOJC - Johnson County Executive Airport (18 nm NW)
3GV - East Kansas City Airport (19 nm NE)
KIXD - New Century AirCenter Airport (25 nm W)
 
Loc | Ops | Rwys | IFR | FBO | Links
Com | Nav | Svcs | Stats | Notes

Kansas City Aviation Department
 
Area around MO37 (Ridgeview Ranch Airport)
 
Road maps at: MapQuest Bing Google
 
Aerial photo
No photo
 
Sectional chart

 
Airport distance calculator
Flying to Ridgeview Ranch Airport? Find the distance to fly.

From to MO37

Sunrise and sunset
Times for 18-Nov-2018
 Local
(UTC-6)
 Zulu
(UTC)
Morning civil twilight06:3612:36
Sunrise07:0413:04
Sunset17:0123:01
Evening civil twilight17:3023:30

Current date and time
Zulu (UTC)  18-Nov-2018 19:23:35
Local (UTC-6)  18-Nov-2018 13:23:35
 
METAR
KLRY 
7nm S 
181855Z AUTO 02003KT 10SM -SN OVC016 02/M01 A3030 RMK AO2
KLXT 
15nm N 
181853Z AUTO 34008KT 10SM OVC024 00/M04 A3028 RMK AO2 SLP264 T00001039
KOJC 
18nm NW 
181853Z 35007KT 10SM OVC019 M01/M05 A3027 RMK AO2 SLP261 T10061050
TAF
KIXD 
24nm W 
181736Z 1818/1918 35006KT P6SM BKN025 FM181900 34005KT P6SM FEW250 FM190100 20004KT P6SM SKC FM191500 27006KT P6SM BKN150
KMKC 
26nm NW 
181736Z 1818/1918 35006KT P6SM BKN025 FM181900 36006KT P6SM FEW250 FM190100 20004KT P6SM SKC FM191500 27006KT P6SM BKN150
NOTAMs
Click for the latest NOTAMs
NOTAMs are issued by the DoD/FAA and will open in a separate window not controlled by AirNav.

 

 
 

Would you like to see your business listed on this page?

 If your business provides an interesting product or service to pilots, flight crews, aircraft, or users of the Ridgeview Ranch Airport, you should consider listing it here.  To start the listing process, click on the button below
 
Add a business
 

Other Pages about Ridgeview Ranch Airport

Update a link
 
Copyright © AirNav, LLC. All rights reserved. Privacy Policy  Contact